sensor_id;sensor_type;location;lat;lon;timestamp;P1;durP1;ratioP1;P2;durP2;ratioP2
6255;SDS011;3161;48.794;9.784;2022-11-15T00:00:59;17.40;;;10.07;;
6255;SDS011;3161;48.794;9.784;2022-11-15T00:03:27;14.57;;;8.90;;
6255;SDS011;3161;48.794;9.784;2022-11-15T00:05:54;20.47;;;9.63;;
6255;SDS011;3161;48.794;9.784;2022-11-15T00:08:23;20.00;;;9.20;;
6255;SDS011;3161;48.794;9.784;2022-11-15T00:10:59;15.50;;;7.97;;
6255;SDS011;3161;48.794;9.784;2022-11-15T00:13:27;15.00;;;6.03;;
6255;SDS011;3161;48.794;9.784;2022-11-15T00:15:59;8.47;;;5.77;;
6255;SDS011;3161;48.794;9.784;2022-11-15T00:18:28;11.50;;;6.23;;
6255;SDS011;3161;48.794;9.784;2022-11-15T00:21:02;11.43;;;6.20;;
6255;SDS011;3161;48.794;9.784;2022-11-15T00:23:33;20.17;;;8.70;;
6255;SDS011;3161;48.794;9.784;2022-11-15T00:26:00;15.70;;;9.97;;
6255;SDS011;3161;48.794;9.784;2022-11-15T00:28:28;19.07;;;9.53;;
6255;SDS011;3161;48.794;9.784;2022-11-15T00:30:59;17.63;;;9.33;;
6255;SDS011;3161;48.794;9.784;2022-11-15T00:33:28;15.80;;;8.23;;
6255;SDS011;3161;48.794;9.784;2022-11-15T00:35:59;15.73;;;8.40;;
6255;SDS011;3161;48.794;9.784;2022-11-15T00:38:32;13.30;;;8.03;;
6255;SDS011;3161;48.794;9.784;2022-11-15T00:41:00;10.93;;;6.97;;
6255;SDS011;3161;48.794;9.784;2022-11-15T00:43:28;15.60;;;8.13;;
6255;SDS011;3161;48.794;9.784;2022-11-15T00:45:56;18.50;;;8.77;;
6255;SDS011;3161;48.794;9.784;2022-11-15T00:48:24;19.80;;;11.40;;
6255;SDS011;3161;48.794;9.784;2022-11-15T00:50:51;22.30;;;12.67;;
6255;SDS011;3161;48.794;9.784;2022-11-15T00:53:19;30.80;;;16.50;;
6255;SDS011;3161;48.794;9.784;2022-11-15T00:55:47;26.27;;;11.83;;
6255;SDS011;3161;48.794;9.784;2022-11-15T00:58:14;26.97;;;13.20;;
6255;SDS011;3161;48.794;9.784;2022-11-15T01:00:42;23.60;;;11.60;;
6255;SDS011;3161;48.794;9.784;2022-11-15T01:03:09;19.47;;;10.83;;
6255;SDS011;3161;48.794;9.784;2022-11-15T01:05:37;16.00;;;9.90;;
6255;SDS011;3161;48.794;9.784;2022-11-15T01:08:05;15.17;;;7.63;;
6255;SDS011;3161;48.794;9.784;2022-11-15T01:10:32;19.43;;;8.50;;
6255;SDS011;3161;48.794;9.784;2022-11-15T01:13:00;16.77;;;8.90;;
6255;SDS011;3161;48.794;9.784;2022-11-15T01:15:27;14.57;;;6.90;;
6255;SDS011;3161;48.794;9.784;2022-11-15T01:17:55;15.77;;;7.30;;
6255;SDS011;3161;48.794;9.784;2022-11-15T01:20:22;12.53;;;7.00;;
6255;SDS011;3161;48.794;9.784;2022-11-15T01:22:50;13.97;;;7.23;;
6255;SDS011;3161;48.794;9.784;2022-11-15T01:25:17;13.87;;;7.33;;
6255;SDS011;3161;48.794;9.784;2022-11-15T01:27:45;12.80;;;7.13;;
6255;SDS011;3161;48.794;9.784;2022-11-15T01:30:12;11.60;;;6.80;;
6255;SDS011;3161;48.794;9.784;2022-11-15T01:32:40;12.37;;;5.90;;
6255;SDS011;3161;48.794;9.784;2022-11-15T01:35:07;10.77;;;5.20;;
6255;SDS011;3161;48.794;9.784;2022-11-15T01:37:35;8.87;;;5.40;;
6255;SDS011;3161;48.794;9.784;2022-11-15T01:40:02;9.57;;;5.50;;
6255;SDS011;3161;48.794;9.784;2022-11-15T01:42:30;9.07;;;5.70;;
6255;SDS011;3161;48.794;9.784;2022-11-15T01:44:58;12.83;;;6.03;;
6255;SDS011;3161;48.794;9.784;2022-11-15T01:47:28;9.67;;;6.00;;
6255;SDS011;3161;48.794;9.784;2022-11-15T01:49:57;16.03;;;8.13;;
6255;SDS011;3161;48.794;9.784;2022-11-15T01:52:28;16.53;;;7.67;;
6255;SDS011;3161;48.794;9.784;2022-11-15T01:57:37;12.67;;;6.63;;
6255;SDS011;3161;48.794;9.784;2022-11-15T02:00:08;10.43;;;6.63;;
6255;SDS011;3161;48.794;9.784;2022-11-15T02:02:37;12.53;;;6.47;;
6255;SDS011;3161;48.794;9.784;2022-11-15T02:05:05;10.20;;;5.53;;
6255;SDS011;3161;48.794;9.784;2022-11-15T02:07:34;9.40;;;5.40;;
6255;SDS011;3161;48.794;9.784;2022-11-15T02:10:04;9.07;;;4.97;;
6255;SDS011;3161;48.794;9.784;2022-11-15T02:12:36;11.30;;;5.43;;
6255;SDS011;3161;48.794;9.784;2022-11-15T02:15:04;6.13;;;4.33;;
6255;SDS011;3161;48.794;9.784;2022-11-15T02:23:20;7.13;;;4.20;;
6255;SDS011;3161;48.794;9.784;2022-11-15T02:26:22;5.97;;;3.37;;
6255;SDS011;3161;48.794;9.784;2022-11-15T02:28:58;3.80;;;2.93;;
6255;SDS011;3161;48.794;9.784;2022-11-15T02:31:45;6.10;;;3.73;;
6255;SDS011;3161;48.794;9.784;2022-11-15T02:34:22;7.83;;;3.13;;
6255;SDS011;3161;48.794;9.784;2022-11-15T02:39:50;8.83;;;3.43;;
6255;SDS011;3161;48.794;9.784;2022-11-15T02:42:21;6.90;;;3.83;;
6255;SDS011;3161;48.794;9.784;2022-11-15T02:45:08;6.23;;;3.37;;
6255;SDS011;3161;48.794;9.784;2022-11-15T02:47:41;6.07;;;3.63;;
6255;SDS011;3161;48.794;9.784;2022-11-15T02:50:12;5.20;;;3.50;;
6255;SDS011;3161;48.794;9.784;2022-11-15T02:52:44;5.53;;;3.93;;
6255;SDS011;3161;48.794;9.784;2022-11-15T03:00:38;9.17;;;3.40;;
6255;SDS011;3161;48.794;9.784;2022-11-15T03:08:32;6.83;;;4.17;;
6255;SDS011;3161;48.794;9.784;2022-11-15T03:11:10;8.80;;;3.33;;
6255;SDS011;3161;48.794;9.784;2022-11-15T03:13:40;4.50;;;3.23;;
6255;SDS011;3161;48.794;9.784;2022-11-15T03:16:16;5.07;;;3.47;;
6255;SDS011;3161;48.794;9.784;2022-11-15T03:19:12;6.53;;;3.03;;
6255;SDS011;3161;48.794;9.784;2022-11-15T03:21:28;6.63;;;3.20;;
6255;SDS011;3161;48.794;9.784;2022-11-15T03:23:59;7.73;;;3.00;;
6255;SDS011;3161;48.794;9.784;2022-11-15T03:26:29;4.93;;;2.60;;
6255;SDS011;3161;48.794;9.784;2022-11-15T03:28:59;4.57;;;2.67;;
6255;SDS011;3161;48.794;9.784;2022-11-15T03:31:32;3.57;;;3.03;;
6255;SDS011;3161;48.794;9.784;2022-11-15T03:34:26;5.13;;;3.13;;
6255;SDS011;3161;48.794;9.784;2022-11-15T03:36:47;6.00;;;3.33;;
6255;SDS011;3161;48.794;9.784;2022-11-15T03:39:18;6.77;;;2.90;;
6255;SDS011;3161;48.794;9.784;2022-11-15T03:44:30;8.53;;;3.50;;
6255;SDS011;3161;48.794;9.784;2022-11-15T03:47:19;4.63;;;2.43;;
6255;SDS011;3161;48.794;9.784;2022-11-15T03:49:49;3.00;;;2.63;;
6255;SDS011;3161;48.794;9.784;2022-11-15T03:52:16;3.77;;;2.90;;
6255;SDS011;3161;48.794;9.784;2022-11-15T03:54:48;4.53;;;3.00;;
6255;SDS011;3161;48.794;9.784;2022-11-15T03:57:18;4.97;;;2.83;;
6255;SDS011;3161;48.794;9.784;2022-11-15T03:59:45;2.47;;;2.20;;
6255;SDS011;3161;48.794;9.784;2022-11-15T04:02:13;3.27;;;2.50;;
6255;SDS011;3161;48.794;9.784;2022-11-15T04:04:41;4.27;;;2.90;;
6255;SDS011;3161;48.794;9.784;2022-11-15T04:07:08;9.67;;;3.40;;
6255;SDS011;3161;48.794;9.784;2022-11-15T04:09:36;4.50;;;3.50;;
6255;SDS011;3161;48.794;9.784;2022-11-15T04:12:22;8.03;;;3.77;;
6255;SDS011;3161;48.794;9.784;2022-11-15T04:14:51;11.50;;;3.63;;
6255;SDS011;3161;48.794;9.784;2022-11-15T04:17:20;6.83;;;3.40;;
6255;SDS011;3161;48.794;9.784;2022-11-15T04:19:47;6.57;;;3.77;;
6255;SDS011;3161;48.794;9.784;2022-11-15T04:22:33;5.27;;;3.73;;
6255;SDS011;3161;48.794;9.784;2022-11-15T04:25:18;3.77;;;3.27;;
6255;SDS011;3161;48.794;9.784;2022-11-15T04:27:46;4.73;;;3.20;;
6255;SDS011;3161;48.794;9.784;2022-11-15T04:30:13;6.33;;;3.63;;
6255;SDS011;3161;48.794;9.784;2022-11-15T04:32:42;4.07;;;3.33;;
6255;SDS011;3161;48.794;9.784;2022-11-15T04:35:09;7.10;;;3.90;;
6255;SDS011;3161;48.794;9.784;2022-11-15T04:37:37;4.33;;;2.80;;
6255;SDS011;3161;48.794;9.784;2022-11-15T04:40:05;4.60;;;3.17;;
6255;SDS011;3161;48.794;9.784;2022-11-15T04:42:33;5.80;;;3.30;;
6255;SDS011;3161;48.794;9.784;2022-11-15T04:45:01;6.47;;;3.03;;
6255;SDS011;3161;48.794;9.784;2022-11-15T04:47:29;5.57;;;3.27;;
6255;SDS011;3161;48.794;9.784;2022-11-15T04:49:56;5.27;;;3.40;;
6255;SDS011;3161;48.794;9.784;2022-11-15T04:52:24;3.80;;;3.40;;
6255;SDS011;3161;48.794;9.784;2022-11-15T04:54:51;6.03;;;3.93;;
6255;SDS011;3161;48.794;9.784;2022-11-15T04:57:19;8.27;;;3.80;;
6255;SDS011;3161;48.794;9.784;2022-11-15T04:59:46;6.40;;;3.67;;
6255;SDS011;3161;48.794;9.784;2022-11-15T05:02:14;4.33;;;3.33;;
6255;SDS011;3161;48.794;9.784;2022-11-15T05:04:41;8.47;;;3.73;;
6255;SDS011;3161;48.794;9.784;2022-11-15T05:07:09;5.57;;;3.73;;
6255;SDS011;3161;48.794;9.784;2022-11-15T05:09:37;6.87;;;4.00;;
6255;SDS011;3161;48.794;9.784;2022-11-15T05:12:04;9.97;;;4.37;;
6255;SDS011;3161;48.794;9.784;2022-11-15T05:14:32;8.53;;;3.23;;
6255;SDS011;3161;48.794;9.784;2022-11-15T05:17:00;5.07;;;3.63;;
6255;SDS011;3161;48.794;9.784;2022-11-15T05:19:27;6.13;;;3.83;;
6255;SDS011;3161;48.794;9.784;2022-11-15T05:21:55;9.07;;;3.20;;
6255;SDS011;3161;48.794;9.784;2022-11-15T05:24:22;8.00;;;3.70;;
6255;SDS011;3161;48.794;9.784;2022-11-15T05:26:50;6.53;;;2.80;;
6255;SDS011;3161;48.794;9.784;2022-11-15T05:29:17;5.93;;;2.87;;
6255;SDS011;3161;48.794;9.784;2022-11-15T05:31:45;7.53;;;4.07;;
6255;SDS011;3161;48.794;9.784;2022-11-15T05:34:13;9.30;;;5.10;;
6255;SDS011;3161;48.794;9.784;2022-11-15T05:36:41;9.53;;;4.10;;
6255;SDS011;3161;48.794;9.784;2022-11-15T05:39:11;5.90;;;3.63;;
6255;SDS011;3161;48.794;9.784;2022-11-15T05:44:13;4.77;;;2.80;;
6255;SDS011;3161;48.794;9.784;2022-11-15T05:46:43;6.97;;;3.20;;
6255;SDS011;3161;48.794;9.784;2022-11-15T05:49:13;5.83;;;2.97;;
6255;SDS011;3161;48.794;9.784;2022-11-15T05:51:42;3.50;;;2.60;;
6255;SDS011;3161;48.794;9.784;2022-11-15T05:54:11;5.90;;;3.27;;
6255;SDS011;3161;48.794;9.784;2022-11-15T05:56:40;9.70;;;2.77;;
6255;SDS011;3161;48.794;9.784;2022-11-15T05:59:08;5.43;;;3.13;;
6255;SDS011;3161;48.794;9.784;2022-11-15T06:01:37;7.30;;;3.23;;
6255;SDS011;3161;48.794;9.784;2022-11-15T06:04:06;17.93;;;4.07;;
6255;SDS011;3161;48.794;9.784;2022-11-15T06:06:34;6.53;;;3.47;;
6255;SDS011;3161;48.794;9.784;2022-11-15T06:09:01;3.90;;;2.83;;
6255;SDS011;3161;48.794;9.784;2022-11-15T06:11:29;9.53;;;3.10;;
6255;SDS011;3161;48.794;9.784;2022-11-15T06:13:56;4.73;;;2.63;;
6255;SDS011;3161;48.794;9.784;2022-11-15T06:16:24;4.43;;;2.53;;
6255;SDS011;3161;48.794;9.784;2022-11-15T06:18:51;3.33;;;2.20;;
6255;SDS011;3161;48.794;9.784;2022-11-15T06:21:19;4.50;;;2.70;;
6255;SDS011;3161;48.794;9.784;2022-11-15T06:23:47;6.87;;;2.80;;
6255;SDS011;3161;48.794;9.784;2022-11-15T06:26:14;6.50;;;2.83;;
6255;SDS011;3161;48.794;9.784;2022-11-15T06:28:42;5.07;;;2.50;;
6255;SDS011;3161;48.794;9.784;2022-11-15T06:31:10;7.37;;;2.90;;
6255;SDS011;3161;48.794;9.784;2022-11-15T06:33:38;6.27;;;3.37;;
6255;SDS011;3161;48.794;9.784;2022-11-15T06:36:07;2.80;;;2.40;;
6255;SDS011;3161;48.794;9.784;2022-11-15T06:38:38;3.70;;;2.90;;
6255;SDS011;3161;48.794;9.784;2022-11-15T06:41:07;2.97;;;2.67;;
6255;SDS011;3161;48.794;9.784;2022-11-15T06:43:36;7.83;;;3.60;;
6255;SDS011;3161;48.794;9.784;2022-11-15T06:46:04;7.23;;;4.20;;
6255;SDS011;3161;48.794;9.784;2022-11-15T06:48:33;14.50;;;4.43;;
6255;SDS011;3161;48.794;9.784;2022-11-15T06:51:02;16.07;;;5.23;;
6255;SDS011;3161;48.794;9.784;2022-11-15T06:53:31;9.10;;;5.13;;
6255;SDS011;3161;48.794;9.784;2022-11-15T06:56:02;9.33;;;4.90;;
6255;SDS011;3161;48.794;9.784;2022-11-15T06:58:32;7.40;;;4.57;;
6255;SDS011;3161;48.794;9.784;2022-11-15T07:01:01;12.30;;;4.70;;
6255;SDS011;3161;48.794;9.784;2022-11-15T07:03:37;5.83;;;4.03;;
6255;SDS011;3161;48.794;9.784;2022-11-15T07:06:06;4.40;;;3.13;;
6255;SDS011;3161;48.794;9.784;2022-11-15T07:08:35;8.77;;;4.37;;
6255;SDS011;3161;48.794;9.784;2022-11-15T07:11:04;8.47;;;4.07;;
6255;SDS011;3161;48.794;9.784;2022-11-15T07:13:34;6.63;;;3.37;;
6255;SDS011;3161;48.794;9.784;2022-11-15T07:16:06;8.30;;;4.50;;
6255;SDS011;3161;48.794;9.784;2022-11-15T07:18:39;12.80;;;6.07;;
6255;SDS011;3161;48.794;9.784;2022-11-15T07:21:08;13.63;;;7.20;;
6255;SDS011;3161;48.794;9.784;2022-11-15T07:23:38;10.77;;;6.27;;
6255;SDS011;3161;48.794;9.784;2022-11-15T07:26:06;12.70;;;7.13;;
6255;SDS011;3161;48.794;9.784;2022-11-15T07:28:34;12.33;;;6.37;;
6255;SDS011;3161;48.794;9.784;2022-11-15T07:31:03;12.87;;;6.60;;
6255;SDS011;3161;48.794;9.784;2022-11-15T07:33:32;16.63;;;7.77;;
6255;SDS011;3161;48.794;9.784;2022-11-15T07:36:00;12.60;;;6.97;;
6255;SDS011;3161;48.794;9.784;2022-11-15T07:38:29;17.40;;;6.30;;
6255;SDS011;3161;48.794;9.784;2022-11-15T07:40:57;11.50;;;6.27;;
6255;SDS011;3161;48.794;9.784;2022-11-15T07:43:26;8.87;;;5.67;;
6255;SDS011;3161;48.794;9.784;2022-11-15T07:45:55;15.07;;;7.10;;
6255;SDS011;3161;48.794;9.784;2022-11-15T07:48:23;12.80;;;7.10;;
6255;SDS011;3161;48.794;9.784;2022-11-15T07:50:50;21.17;;;6.83;;
6255;SDS011;3161;48.794;9.784;2022-11-15T07:53:18;13.50;;;5.63;;
6255;SDS011;3161;48.794;9.784;2022-11-15T07:55:45;10.57;;;5.53;;
6255;SDS011;3161;48.794;9.784;2022-11-15T07:58:13;14.73;;;5.97;;
6255;SDS011;3161;48.794;9.784;2022-11-15T08:00:41;9.60;;;5.20;;
6255;SDS011;3161;48.794;9.784;2022-11-15T08:03:10;16.20;;;6.23;;
6255;SDS011;3161;48.794;9.784;2022-11-15T08:05:39;11.37;;;6.97;;
6255;SDS011;3161;48.794;9.784;2022-11-15T08:08:09;18.47;;;7.63;;
6255;SDS011;3161;48.794;9.784;2022-11-15T08:10:37;12.47;;;6.60;;
6255;SDS011;3161;48.794;9.784;2022-11-15T08:13:09;12.70;;;6.47;;
6255;SDS011;3161;48.794;9.784;2022-11-15T08:15:38;15.53;;;6.33;;
6255;SDS011;3161;48.794;9.784;2022-11-15T08:18:08;10.17;;;6.50;;
6255;SDS011;3161;48.794;9.784;2022-11-15T08:20:37;17.27;;;7.80;;
6255;SDS011;3161;48.794;9.784;2022-11-15T08:23:05;10.80;;;6.67;;
6255;SDS011;3161;48.794;9.784;2022-11-15T08:25:34;8.37;;;5.90;;
6255;SDS011;3161;48.794;9.784;2022-11-15T08:28:07;15.00;;;7.03;;
6255;SDS011;3161;48.794;9.784;2022-11-15T08:30:39;10.77;;;6.70;;
6255;SDS011;3161;48.794;9.784;2022-11-15T08:33:12;14.97;;;5.97;;
6255;SDS011;3161;48.794;9.784;2022-11-15T08:35:41;9.40;;;5.83;;
6255;SDS011;3161;48.794;9.784;2022-11-15T08:38:10;9.33;;;5.70;;
6255;SDS011;3161;48.794;9.784;2022-11-15T08:40:40;12.83;;;6.30;;
6255;SDS011;3161;48.794;9.784;2022-11-15T08:43:08;10.83;;;6.03;;
6255;SDS011;3161;48.794;9.784;2022-11-15T08:45:35;7.73;;;5.37;;
6255;SDS011;3161;48.794;9.784;2022-11-15T08:48:03;8.07;;;5.30;;
6255;SDS011;3161;48.794;9.784;2022-11-15T08:50:31;7.30;;;4.40;;
6255;SDS011;3161;48.794;9.784;2022-11-15T08:53:04;10.53;;;4.57;;
6255;SDS011;3161;48.794;9.784;2022-11-15T08:55:31;12.93;;;4.87;;
6255;SDS011;3161;48.794;9.784;2022-11-15T08:57:59;9.23;;;5.03;;
6255;SDS011;3161;48.794;9.784;2022-11-15T09:00:26;9.70;;;5.23;;
6255;SDS011;3161;48.794;9.784;2022-11-15T09:02:54;15.97;;;7.87;;
6255;SDS011;3161;48.794;9.784;2022-11-15T09:05:21;15.23;;;5.97;;
6255;SDS011;3161;48.794;9.784;2022-11-15T09:07:52;18.97;;;6.67;;
6255;SDS011;3161;48.794;9.784;2022-11-15T09:10:21;7.53;;;5.50;;
6255;SDS011;3161;48.794;9.784;2022-11-15T09:12:50;11.00;;;5.20;;
6255;SDS011;3161;48.794;9.784;2022-11-15T09:15:17;17.67;;;5.87;;
6255;SDS011;3161;48.794;9.784;2022-11-15T09:17:45;10.97;;;5.93;;
6255;SDS011;3161;48.794;9.784;2022-11-15T09:20:13;16.70;;;6.27;;
6255;SDS011;3161;48.794;9.784;2022-11-15T09:22:41;13.90;;;5.87;;
6255;SDS011;3161;48.794;9.784;2022-11-15T09:25:09;8.30;;;5.27;;
6255;SDS011;3161;48.794;9.784;2022-11-15T09:27:36;22.23;;;10.50;;
6255;SDS011;3161;48.794;9.784;2022-11-15T09:30:04;15.87;;;8.30;;
6255;SDS011;3161;48.794;9.784;2022-11-15T09:32:32;12.60;;;7.00;;
6255;SDS011;3161;48.794;9.784;2022-11-15T09:35:00;14.50;;;7.90;;
6255;SDS011;3161;48.794;9.784;2022-11-15T09:37:28;17.43;;;6.70;;
6255;SDS011;3161;48.794;9.784;2022-11-15T09:39:58;9.13;;;5.93;;
6255;SDS011;3161;48.794;9.784;2022-11-15T09:42:36;10.57;;;7.30;;
6255;SDS011;3161;48.794;9.784;2022-11-15T09:47:48;14.13;;;5.87;;
6255;SDS011;3161;48.794;9.784;2022-11-15T09:53:04;10.77;;;5.47;;
6255;SDS011;3161;48.794;9.784;2022-11-15T09:55:41;9.20;;;4.50;;
6255;SDS011;3161;48.794;9.784;2022-11-15T09:58:23;8.70;;;4.87;;
6255;SDS011;3161;48.794;9.784;2022-11-15T10:00:50;10.97;;;4.13;;
6255;SDS011;3161;48.794;9.784;2022-11-15T10:06:00;7.87;;;4.50;;
6255;SDS011;3161;48.794;9.784;2022-11-15T10:08:37;9.93;;;4.00;;
6255;SDS011;3161;48.794;9.784;2022-11-15T10:11:15;8.33;;;4.67;;
6255;SDS011;3161;48.794;9.784;2022-11-15T10:13:43;7.43;;;4.27;;
6255;SDS011;3161;48.794;9.784;2022-11-15T10:24:46;7.57;;;3.93;;
6255;SDS011;3161;48.794;9.784;2022-11-15T10:27:15;4.70;;;3.60;;
6255;SDS011;3161;48.794;9.784;2022-11-15T10:29:46;6.83;;;3.80;;
6255;SDS011;3161;48.794;9.784;2022-11-15T10:32:15;6.83;;;3.50;;
6255;SDS011;3161;48.794;9.784;2022-11-15T10:34:48;8.13;;;4.13;;
6255;SDS011;3161;48.794;9.784;2022-11-15T10:37:29;7.10;;;4.17;;
6255;SDS011;3161;48.794;9.784;2022-11-15T10:40:04;11.57;;;4.23;;
6255;SDS011;3161;48.794;9.784;2022-11-15T10:42:31;6.50;;;4.13;;
6255;SDS011;3161;48.794;9.784;2022-11-15T10:44:59;10.60;;;4.13;;
6255;SDS011;3161;48.794;9.784;2022-11-15T10:47:27;9.13;;;3.87;;
6255;SDS011;3161;48.794;9.784;2022-11-15T10:50:26;10.23;;;4.30;;
6255;SDS011;3161;48.794;9.784;2022-11-15T10:52:35;8.40;;;4.20;;
6255;SDS011;3161;48.794;9.784;2022-11-15T10:55:12;14.07;;;3.97;;
6255;SDS011;3161;48.794;9.784;2022-11-15T10:57:48;12.73;;;3.83;;
6255;SDS011;3161;48.794;9.784;2022-11-15T11:03:21;13.03;;;7.00;;
6255;SDS011;3161;48.794;9.784;2022-11-15T11:05:38;13.07;;;4.33;;
6255;SDS011;3161;48.794;9.784;2022-11-15T11:10:46;10.57;;;3.80;;
6255;SDS011;3161;48.794;9.784;2022-11-15T11:13:23;10.17;;;3.40;;
6255;SDS011;3161;48.794;9.784;2022-11-15T11:16:04;5.97;;;3.37;;
6255;SDS011;3161;48.794;9.784;2022-11-15T11:18:42;7.47;;;3.27;;
6255;SDS011;3161;48.794;9.784;2022-11-15T11:21:08;9.17;;;2.90;;
6255;SDS011;3161;48.794;9.784;2022-11-15T11:23:54;4.90;;;2.70;;
6255;SDS011;3161;48.794;9.784;2022-11-15T11:26:33;5.63;;;3.07;;
6255;SDS011;3161;48.794;9.784;2022-11-15T11:32:31;4.33;;;2.80;;
6255;SDS011;3161;48.794;9.784;2022-11-15T11:35:20;4.37;;;2.53;;
6255;SDS011;3161;48.794;9.784;2022-11-15T11:37:56;6.73;;;3.50;;
6255;SDS011;3161;48.794;9.784;2022-11-15T11:40:39;11.23;;;4.67;;
6255;SDS011;3161;48.794;9.784;2022-11-15T11:43:28;7.23;;;3.13;;
6255;SDS011;3161;48.794;9.784;2022-11-15T11:48:46;6.67;;;2.07;;
6255;SDS011;3161;48.794;9.784;2022-11-15T11:51:18;5.33;;;2.30;;
6255;SDS011;3161;48.794;9.784;2022-11-15T11:53:54;6.87;;;2.63;;
6255;SDS011;3161;48.794;9.784;2022-11-15T11:56:31;12.07;;;4.43;;
6255;SDS011;3161;48.794;9.784;2022-11-15T11:59:06;6.17;;;2.87;;
6255;SDS011;3161;48.794;9.784;2022-11-15T12:01:32;4.80;;;2.70;;
6255;SDS011;3161;48.794;9.784;2022-11-15T12:04:18;9.10;;;3.00;;
6255;SDS011;3161;48.794;9.784;2022-11-15T12:06:53;3.53;;;1.93;;
6255;SDS011;3161;48.794;9.784;2022-11-15T12:09:39;3.70;;;2.00;;
6255;SDS011;3161;48.794;9.784;2022-11-15T12:15:20;6.80;;;2.10;;
6255;SDS011;3161;48.794;9.784;2022-11-15T12:17:49;3.70;;;1.63;;
6255;SDS011;3161;48.794;9.784;2022-11-15T12:20:27;3.53;;;1.87;;
6255;SDS011;3161;48.794;9.784;2022-11-15T12:22:58;4.13;;;2.30;;
6255;SDS011;3161;48.794;9.784;2022-11-15T12:28:22;1.77;;;1.67;;
6255;SDS011;3161;48.794;9.784;2022-11-15T12:31:20;2.20;;;1.80;;
6255;SDS011;3161;48.794;9.784;2022-11-15T12:33:57;3.93;;;2.03;;
6255;SDS011;3161;48.794;9.784;2022-11-15T12:36:33;2.37;;;1.90;;
6255;SDS011;3161;48.794;9.784;2022-11-15T12:39:01;3.37;;;2.23;;
6255;SDS011;3161;48.794;9.784;2022-11-15T12:41:45;3.20;;;1.90;;
6255;SDS011;3161;48.794;9.784;2022-11-15T12:47:02;4.73;;;1.77;;
6255;SDS011;3161;48.794;9.784;2022-11-15T12:52:04;2.63;;;2.43;;
6255;SDS011;3161;48.794;9.784;2022-11-15T12:59:59;6.00;;;1.60;;
6255;SDS011;3161;48.794;9.784;2022-11-15T13:02:36;2.87;;;1.60;;
6255;SDS011;3161;48.794;9.784;2022-11-15T13:13:02;4.20;;;1.33;;
6255;SDS011;3161;48.794;9.784;2022-11-15T13:18:30;1.30;;;1.30;;
6255;SDS011;3161;48.794;9.784;2022-11-15T13:20:59;4.67;;;1.47;;
6255;SDS011;3161;48.794;9.784;2022-11-15T13:23:30;1.40;;;1.30;;
6255;SDS011;3161;48.794;9.784;2022-11-15T13:26:04;1.90;;;1.27;;
6255;SDS011;3161;48.794;9.784;2022-11-15T13:28:36;2.37;;;1.47;;
6255;SDS011;3161;48.794;9.784;2022-11-15T13:31:22;3.53;;;1.67;;
6255;SDS011;3161;48.794;9.784;2022-11-15T13:33:47;1.90;;;1.63;;
6255;SDS011;3161;48.794;9.784;2022-11-15T13:36:22;1.53;;;1.30;;
6255;SDS011;3161;48.794;9.784;2022-11-15T13:39:00;3.90;;;1.60;;
6255;SDS011;3161;48.794;9.784;2022-11-15T13:41:30;1.90;;;1.63;;
6255;SDS011;3161;48.794;9.784;2022-11-15T13:43:55;4.27;;;1.50;;
6255;SDS011;3161;48.794;9.784;2022-11-15T13:46:31;1.87;;;1.60;;
6255;SDS011;3161;48.794;9.784;2022-11-15T13:49:00;2.37;;;1.50;;
6255;SDS011;3161;48.794;9.784;2022-11-15T13:51:40;2.53;;;1.63;;
6255;SDS011;3161;48.794;9.784;2022-11-15T13:54:20;1.37;;;1.27;;
6255;SDS011;3161;48.794;9.784;2022-11-15T13:56:52;3.73;;;1.50;;
6255;SDS011;3161;48.794;9.784;2022-11-15T13:59:28;5.60;;;1.73;;
6255;SDS011;3161;48.794;9.784;2022-11-15T14:02:17;2.73;;;1.43;;
6255;SDS011;3161;48.794;9.784;2022-11-15T14:04:54;2.33;;;1.47;;
6255;SDS011;3161;48.794;9.784;2022-11-15T14:07:29;9.73;;;1.40;;
6255;SDS011;3161;48.794;9.784;2022-11-15T14:09:58;1.80;;;1.50;;
6255;SDS011;3161;48.794;9.784;2022-11-15T14:12:30;2.33;;;2.13;;
6255;SDS011;3161;48.794;9.784;2022-11-15T14:14:59;3.50;;;2.80;;
6255;SDS011;3161;48.794;9.784;2022-11-15T14:20:00;2.77;;;2.03;;
6255;SDS011;3161;48.794;9.784;2022-11-15T14:22:29;5.27;;;2.70;;
6255;SDS011;3161;48.794;9.784;2022-11-15T14:25:16;4.33;;;3.30;;
6255;SDS011;3161;48.794;9.784;2022-11-15T14:30:32;1.97;;;1.47;;
6255;SDS011;3161;48.794;9.784;2022-11-15T14:33:00;5.53;;;2.20;;
6255;SDS011;3161;48.794;9.784;2022-11-15T14:35:28;3.70;;;2.10;;
6255;SDS011;3161;48.794;9.784;2022-11-15T14:37:56;4.00;;;1.70;;
6255;SDS011;3161;48.794;9.784;2022-11-15T14:40:25;5.10;;;1.60;;
6255;SDS011;3161;48.794;9.784;2022-11-15T14:42:52;1.40;;;1.30;;
6255;SDS011;3161;48.794;9.784;2022-11-15T14:45:20;4.80;;;1.57;;
6255;SDS011;3161;48.794;9.784;2022-11-15T14:47:55;6.33;;;2.10;;
6255;SDS011;3161;48.794;9.784;2022-11-15T14:50:24;2.10;;;1.33;;
6255;SDS011;3161;48.794;9.784;2022-11-15T14:52:53;4.07;;;1.30;;
6255;SDS011;3161;48.794;9.784;2022-11-15T14:55:22;1.43;;;1.33;;
6255;SDS011;3161;48.794;9.784;2022-11-15T14:57:54;2.53;;;1.50;;
6255;SDS011;3161;48.794;9.784;2022-11-15T15:00:22;4.10;;;1.50;;
6255;SDS011;3161;48.794;9.784;2022-11-15T15:02:51;3.20;;;2.03;;
6255;SDS011;3161;48.794;9.784;2022-11-15T15:05:29;6.67;;;2.20;;
6255;SDS011;3161;48.794;9.784;2022-11-15T15:07:50;4.17;;;1.73;;
6255;SDS011;3161;48.794;9.784;2022-11-15T15:10:21;3.73;;;2.03;;
6255;SDS011;3161;48.794;9.784;2022-11-15T15:12:49;5.97;;;2.10;;
6255;SDS011;3161;48.794;9.784;2022-11-15T15:15:21;5.03;;;2.27;;
6255;SDS011;3161;48.794;9.784;2022-11-15T15:17:50;6.77;;;2.70;;
6255;SDS011;3161;48.794;9.784;2022-11-15T15:20:18;3.77;;;3.00;;
6255;SDS011;3161;48.794;9.784;2022-11-15T15:22:45;5.33;;;2.13;;
6255;SDS011;3161;48.794;9.784;2022-11-15T15:25:23;4.67;;;2.10;;
6255;SDS011;3161;48.794;9.784;2022-11-15T15:27:55;9.97;;;2.93;;
6255;SDS011;3161;48.794;9.784;2022-11-15T15:30:24;6.63;;;2.27;;
6255;SDS011;3161;48.794;9.784;2022-11-15T15:32:52;4.97;;;3.20;;
6255;SDS011;3161;48.794;9.784;2022-11-15T15:35:20;9.90;;;3.70;;
6255;SDS011;3161;48.794;9.784;2022-11-15T15:37:48;4.43;;;3.30;;
6255;SDS011;3161;48.794;9.784;2022-11-15T15:40:18;5.13;;;3.63;;
6255;SDS011;3161;48.794;9.784;2022-11-15T15:42:47;5.30;;;3.40;;
6255;SDS011;3161;48.794;9.784;2022-11-15T15:45:15;10.20;;;3.90;;
6255;SDS011;3161;48.794;9.784;2022-11-15T15:47:44;4.77;;;3.37;;
6255;SDS011;3161;48.794;9.784;2022-11-15T15:50:20;8.17;;;4.47;;
6255;SDS011;3161;48.794;9.784;2022-11-15T15:52:48;16.47;;;9.40;;
6255;SDS011;3161;48.794;9.784;2022-11-15T15:55:16;14.67;;;9.03;;
6255;SDS011;3161;48.794;9.784;2022-11-15T15:57:44;17.87;;;9.63;;
6255;SDS011;3161;48.794;9.784;2022-11-15T16:00:12;12.17;;;6.13;;
6255;SDS011;3161;48.794;9.784;2022-11-15T16:02:40;10.10;;;5.57;;
6255;SDS011;3161;48.794;9.784;2022-11-15T16:05:09;9.00;;;5.57;;
6255;SDS011;3161;48.794;9.784;2022-11-15T16:07:38;10.70;;;5.10;;
6255;SDS011;3161;48.794;9.784;2022-11-15T16:12:47;26.03;;;12.03;;
6255;SDS011;3161;48.794;9.784;2022-11-15T16:15:15;20.30;;;7.20;;
6255;SDS011;3161;48.794;9.784;2022-11-15T16:17:55;36.77;;;20.30;;
6255;SDS011;3161;48.794;9.784;2022-11-15T16:20:33;39.07;;;19.37;;
6255;SDS011;3161;48.794;9.784;2022-11-15T16:23:10;33.37;;;17.10;;
6255;SDS011;3161;48.794;9.784;2022-11-15T16:25:45;18.87;;;7.47;;
6255;SDS011;3161;48.794;9.784;2022-11-15T16:28:25;13.07;;;5.70;;
6255;SDS011;3161;48.794;9.784;2022-11-15T16:30:45;8.80;;;5.27;;
6255;SDS011;3161;48.794;9.784;2022-11-15T16:33:13;15.40;;;5.17;;
6255;SDS011;3161;48.794;9.784;2022-11-15T16:35:43;15.83;;;5.27;;
6255;SDS011;3161;48.794;9.784;2022-11-15T16:38:15;4.93;;;4.13;;
6255;SDS011;3161;48.794;9.784;2022-11-15T16:40:40;7.10;;;4.07;;
6255;SDS011;3161;48.794;9.784;2022-11-15T16:43:08;13.07;;;3.20;;
6255;SDS011;3161;48.794;9.784;2022-11-15T16:45:37;6.07;;;4.03;;
6255;SDS011;3161;48.794;9.784;2022-11-15T16:48:04;5.70;;;3.67;;
6255;SDS011;3161;48.794;9.784;2022-11-15T16:50:33;7.67;;;3.50;;
6255;SDS011;3161;48.794;9.784;2022-11-15T16:53:07;6.57;;;3.47;;
6255;SDS011;3161;48.794;9.784;2022-11-15T16:55:35;8.67;;;3.57;;
6255;SDS011;3161;48.794;9.784;2022-11-15T16:58:02;10.90;;;3.90;;
6255;SDS011;3161;48.794;9.784;2022-11-15T17:00:30;6.87;;;4.77;;
6255;SDS011;3161;48.794;9.784;2022-11-15T17:02:57;7.73;;;3.60;;